createdAt,value
2023-03-02T00:01:10.475Z,77.11
2023-03-02T00:03:39.173Z,77.08
2023-03-02T00:06:06.781Z,77.73
2023-03-02T00:08:35.051Z,77.36
2023-03-02T00:11:02.264Z,77.76
2023-03-02T00:13:31.169Z,77.33
2023-03-02T00:15:57.845Z,77.43
2023-03-02T00:18:24.479Z,77.31
2023-03-02T00:20:51.045Z,77.29
2023-03-02T00:23:17.773Z,77.01
2023-03-02T00:25:44.380Z,76.60
2023-03-02T00:28:10.960Z,77.22
2023-03-02T00:30:38.657Z,77.22
2023-03-02T00:33:05.275Z,77.39
2023-03-02T00:35:37.242Z,77.13
2023-03-02T00:38:03.882Z,77.28
2023-03-02T00:40:30.532Z,75.80
2023-03-02T00:42:57.073Z,75.85
2023-03-02T00:45:23.688Z,75.76
2023-03-02T00:47:50.323Z,76.03
2023-03-02T00:50:17.016Z,77.14
2023-03-02T00:52:43.591Z,77.08
2023-03-02T00:55:10.224Z,77.57
2023-03-02T00:57:36.917Z,78.02
2023-03-02T01:00:04.965Z,77.55
2023-03-02T01:02:39.045Z,77.73
2023-03-02T01:05:05.955Z,77.55
2023-03-02T01:07:33.392Z,77.75
2023-03-02T01:10:00.014Z,78.11
2023-03-02T01:12:26.648Z,77.57
2023-03-02T01:14:53.660Z,77.89
2023-03-02T01:17:22.064Z,78.04
2023-03-02T01:19:48.736Z,77.87
2023-03-02T01:22:15.448Z,77.44
2023-03-02T01:24:42.020Z,77.76
2023-03-02T01:27:08.711Z,77.44
2023-03-02T01:29:35.492Z,77.46
2023-03-02T01:32:02.923Z,77.48
2023-03-02T01:34:29.873Z,77.77
2023-03-02T01:36:56.595Z,78.21
2023-03-02T01:39:23.271Z,77.76
2023-03-02T01:46:07.101Z,77.48
2023-03-02T01:48:47.988Z,77.60
2023-03-02T01:51:23.355Z,77.87
2023-03-02T01:54:02.048Z,77.65
2023-03-02T01:56:36.118Z,77.14
2023-03-02T01:59:08.802Z,77.21
2023-03-02T02:01:39.277Z,77.58
2023-03-02T02:04:06.533Z,77.45
2023-03-02T02:06:37.442Z,77.62
2023-03-02T02:09:08.260Z,77.78
2023-03-02T02:11:35.581Z,78.08
2023-03-02T02:14:03.342Z,77.60
2023-03-02T02:16:33.212Z,77.47
2023-03-02T02:19:01.602Z,77.61
2023-03-02T02:21:29.319Z,77.70
2023-03-02T02:24:21.469Z,78.22
2023-03-02T02:26:51.348Z,77.91
2023-03-02T02:29:24.216Z,77.82
2023-03-02T02:32:19.397Z,77.61
2023-03-02T02:34:59.419Z,77.77
2023-03-02T02:37:35.623Z,77.40
2023-03-02T02:40:09.037Z,77.89
2023-03-02T02:42:41.793Z,78.00
2023-03-02T02:45:20.124Z,78.06
2023-03-02T02:47:47.659Z,78.39
2023-03-02T02:50:28.376Z,78.29
2023-03-02T02:53:05.480Z,78.26
2023-03-02T02:55:35.335Z,78.62
2023-03-02T02:58:09.901Z,78.59
2023-03-02T03:00:37.310Z,78.55
2023-03-02T03:03:29.027Z,79.08
2023-03-02T03:06:04.440Z,78.65
2023-03-02T03:08:43.376Z,78.46
2023-03-02T03:11:16.275Z,77.75
2023-03-02T03:13:44.450Z,78.04
2023-03-02T03:16:15.535Z,78.47
2023-03-02T03:18:45.220Z,77.85
2023-03-02T03:21:11.887Z,78.35
2023-03-02T03:23:38.741Z,78.05
2023-03-02T03:26:07.628Z,78.73
2023-03-02T03:28:35.683Z,78.54
2023-03-02T03:31:03.456Z,78.27
2023-03-02T03:33:30.288Z,78.77
2023-03-02T03:35:57.030Z,79.19
2023-03-02T03:38:23.790Z,79.00
2023-03-02T03:40:50.476Z,78.88
2023-03-02T03:43:17.242Z,79.45
2023-03-02T03:45:51.969Z,79.04
2023-03-02T03:48:19.525Z,78.99
2023-03-02T03:50:47.712Z,79.17
2023-03-02T03:53:14.327Z,78.96
2023-03-02T03:55:41.103Z,79.16
2023-03-02T03:58:07.862Z,78.63
2023-03-02T04:00:35.219Z,78.71
2023-03-02T04:03:07.070Z,79.25
2023-03-02T04:05:34.407Z,78.81
2023-03-02T04:08:03.332Z,79.02
2023-03-02T04:10:30.635Z,79.30
2023-03-02T04:12:57.558Z,79.65
2023-03-02T04:15:24.880Z,80.04
2023-03-02T04:17:52.717Z,79.85
2023-03-02T04:20:22.303Z,79.64
2023-03-02T04:22:53.849Z,79.52
2023-03-02T04:25:23.797Z,79.42
2023-03-02T04:27:54.474Z,79.36
2023-03-02T04:30:25.022Z,79.60
2023-03-02T04:32:52.142Z,79.80
2023-03-02T04:35:20.294Z,79.86
2023-03-02T04:37:47.433Z,79.89
2023-03-02T04:40:15.986Z,79.47
2023-03-02T04:42:44.590Z,79.57
2023-03-02T04:45:11.754Z,79.06
2023-03-02T04:47:38.570Z,79.11
2023-03-02T04:50:05.874Z,78.70
2023-03-02T04:52:32.566Z,78.03
2023-03-02T04:54:59.141Z,78.06
2023-03-02T04:57:25.757Z,78.21
2023-03-02T04:59:52.414Z,78.75
2023-03-02T05:02:19.074Z,78.42
2023-03-02T05:04:45.822Z,78.54
2023-03-02T05:07:12.404Z,78.89
2023-03-02T05:09:39.046Z,78.49
2023-03-02T05:12:05.857Z,78.71
2023-03-02T05:14:33.063Z,78.99
2023-03-02T05:16:59.734Z,79.47
2023-03-02T05:19:26.768Z,79.28
2023-03-02T05:21:53.474Z,79.27
2023-03-02T05:24:20.176Z,79.28
2023-03-02T05:26:46.766Z,79.17
2023-03-02T05:29:13.377Z,79.10
2023-03-02T05:31:43.301Z,79.26
2023-03-02T05:34:12.423Z,79.58
2023-03-02T05:36:39.751Z,79.34
2023-03-02T05:39:07.006Z,79.80
2023-03-02T05:41:34.081Z,79.77
2023-03-02T05:44:01.039Z,79.90
2023-03-02T05:46:28.012Z,79.68
2023-03-02T05:48:54.602Z,79.51
2023-03-02T05:51:21.340Z,79.16
2023-03-02T05:53:48.000Z,79.10
2023-03-02T05:56:14.677Z,79.46
2023-03-02T05:58:41.330Z,79.45
2023-03-02T06:01:12.568Z,78.70
2023-03-02T06:03:41.411Z,78.65
2023-03-02T06:06:08.256Z,78.65
2023-03-02T06:08:35.014Z,79.20
2023-03-02T06:11:01.695Z,78.85
2023-03-02T06:13:28.382Z,78.46
2023-03-02T06:15:55.012Z,78.48
2023-03-02T06:18:21.761Z,78.54
2023-03-02T06:20:50.499Z,79.05
2023-03-02T06:23:17.142Z,79.21
2023-03-02T06:25:48.572Z,79.25
2023-03-02T06:28:16.576Z,78.93
2023-03-02T06:30:43.236Z,78.54
2023-03-02T06:33:09.794Z,78.34
2023-03-02T06:35:36.544Z,78.69
2023-03-02T06:38:03.372Z,79.51
2023-03-02T06:40:30.265Z,79.28
2023-03-02T06:42:57.052Z,79.64
2023-03-02T06:45:23.596Z,79.59
2023-03-02T06:47:50.221Z,79.68
2023-03-02T06:50:16.980Z,79.59
2023-03-02T06:52:43.573Z,79.87
2023-03-02T06:55:10.461Z,79.91
2023-03-02T06:57:39.581Z,80.02
2023-03-02T07:00:18.729Z,79.64
2023-03-02T07:02:46.701Z,79.94
2023-03-02T07:05:13.293Z,80.04
2023-03-02T07:07:40.488Z,79.83
2023-03-02T07:10:08.384Z,79.81
2023-03-02T07:12:35.131Z,80.07
2023-03-02T07:15:02.408Z,79.24
2023-03-02T07:17:30.081Z,79.70
2023-03-02T07:19:56.683Z,79.98
2023-03-02T07:22:23.302Z,80.17
2023-03-02T07:24:49.899Z,80.15
2023-03-02T07:27:16.539Z,79.98
2023-03-02T07:29:43.142Z,80.39
2023-03-02T07:32:12.391Z,80.35
2023-03-02T07:34:39.528Z,80.01
2023-03-02T07:37:06.214Z,79.91
2023-03-02T07:39:32.761Z,79.59
2023-03-02T07:42:04.384Z,79.02
2023-03-02T07:44:31.385Z,78.24
2023-03-02T07:46:59.468Z,78.35
2023-03-02T07:49:26.421Z,78.60
2023-03-02T07:51:53.112Z,78.12
2023-03-02T07:54:19.719Z,77.45
2023-03-02T07:56:47.506Z,77.32
2023-03-02T07:59:14.421Z,76.61
2023-03-02T08:01:41.083Z,75.98
2023-03-02T08:04:07.922Z,74.87
2023-03-02T08:06:34.488Z,74.66
2023-03-02T08:09:04.400Z,74.02
2023-03-02T08:11:31.403Z,73.15
2023-03-02T08:14:02.815Z,73.03
2023-03-02T08:16:30.158Z,72.65
2023-03-02T08:18:59.317Z,72.46
2023-03-02T08:21:27.504Z,72.46
2023-03-02T08:23:54.225Z,72.48
2023-03-02T08:26:21.170Z,71.65
2023-03-02T08:28:48.076Z,71.92
2023-03-02T08:31:15.391Z,70.60
2023-03-02T08:33:42.489Z,70.70
2023-03-02T08:36:16.506Z,69.46
2023-03-02T08:38:44.556Z,67.97
2023-03-02T08:41:14.727Z,67.05
2023-03-02T08:43:41.627Z,66.69
2023-03-02T08:46:08.684Z,66.86
2023-03-02T08:48:35.278Z,65.22
2023-03-02T08:51:08.094Z,65.51
2023-03-02T08:53:40.810Z,63.97
2023-03-02T08:56:29.135Z,64.27
2023-03-02T08:59:00.611Z,64.13
2023-03-02T09:01:32.188Z,64.24
2023-03-02T09:04:00.713Z,64.46
2023-03-02T09:06:29.624Z,62.66
2023-03-02T09:08:57.293Z,64.10
2023-03-02T09:11:24.397Z,62.79
2023-03-02T09:13:51.052Z,62.79
2023-03-02T09:16:20.722Z,62.68
2023-03-02T09:18:48.181Z,62.89
2023-03-02T09:21:14.943Z,58.91
2023-03-02T09:23:41.887Z,56.46
2023-03-02T09:26:09.552Z,55.96
2023-03-02T09:28:36.958Z,58.27
2023-03-02T09:31:05.766Z,54.54
2023-03-02T09:33:33.390Z,54.34
2023-03-02T09:36:04.831Z,52.52
2023-03-02T09:38:31.663Z,49.81
2023-03-02T09:41:12.120Z,46.25
2023-03-02T09:44:15.442Z,45.48
2023-03-02T09:46:49.454Z,45.67
2023-03-02T09:49:31.655Z,40.34
2023-03-02T09:52:27.442Z,40.72
2023-03-02T09:54:54.642Z,37.49
2023-03-02T09:57:25.467Z,36.89
2023-03-02T10:00:23.579Z,30.23
2023-03-02T10:02:58.763Z,26.99
2023-03-02T10:05:38.550Z,27.15
2023-03-02T10:08:05.715Z,27.79
2023-03-02T10:11:03.728Z,23.87
2023-03-02T10:13:36.525Z,21.02
2023-03-02T10:16:15.801Z,23.78
2023-03-02T10:18:42.346Z,21.03
2023-03-02T10:21:11.546Z,22.67
2023-03-02T10:23:56.268Z,18.84
2023-03-02T10:26:49.886Z,19.27
2023-03-02T10:29:28.378Z,21.90
2023-03-02T10:32:04.368Z,18.09
2023-03-02T10:34:31.591Z,18.96
2023-03-02T10:36:58.568Z,19.49
2023-03-02T10:39:25.228Z,19.22
2023-03-02T10:42:03.565Z,17.90
2023-03-02T10:44:39.279Z,18.68
2023-03-02T10:47:07.634Z,17.94
2023-03-02T10:49:36.813Z,18.93
2023-03-02T10:52:13.614Z,17.61
2023-03-02T10:54:41.073Z,16.78
2023-03-02T10:57:31.398Z,16.07
2023-03-02T11:00:13.995Z,18.11
2023-03-02T11:02:49.815Z,17.98
2023-03-02T11:05:29.057Z,18.88
2023-03-02T11:08:02.688Z,17.16
2023-03-02T11:10:41.062Z,19.04
2023-03-02T11:13:28.532Z,17.69
2023-03-02T11:16:01.281Z,16.89
2023-03-02T11:18:52.694Z,15.71
2023-03-02T11:21:43.640Z,18.12
2023-03-02T11:24:19.228Z,16.78
2023-03-02T11:26:54.472Z,18.39
2023-03-02T11:29:45.484Z,15.97
2023-03-02T11:32:15.636Z,18.30
2023-03-02T11:35:05.044Z,17.83
2023-03-02T11:37:52.377Z,16.03
2023-03-02T11:40:36.810Z,18.71
2023-03-02T11:43:06.837Z,18.15
2023-03-02T11:45:38.206Z,18.53
2023-03-02T11:48:18.445Z,18.53
2023-03-02T11:50:57.214Z,18.98
2023-03-02T11:53:31.997Z,18.46
2023-03-02T11:55:58.826Z,18.54
2023-03-02T11:58:28.314Z,18.94
2023-03-02T12:00:56.151Z,17.95
2023-03-02T12:03:31.631Z,20.89
2023-03-02T12:06:07.230Z,19.08
2023-03-02T12:08:41.450Z,20.00
2023-03-02T12:11:34.224Z,18.43
2023-03-02T12:14:04.480Z,18.26
2023-03-02T12:16:42.253Z,19.43
2023-03-02T12:19:17.906Z,18.60
2023-03-02T12:22:06.800Z,18.93
2023-03-02T12:24:36.657Z,19.65
2023-03-02T12:27:15.549Z,19.12
2023-03-02T12:29:46.543Z,19.34
2023-03-02T12:32:33.510Z,20.50
2023-03-02T12:35:09.476Z,18.12
2023-03-02T12:37:53.629Z,19.08
2023-03-02T12:40:23.255Z,19.86
2023-03-02T12:42:55.794Z,18.28
2023-03-02T12:45:37.370Z,18.70
2023-03-02T12:48:22.801Z,18.63
2023-03-02T12:50:51.237Z,18.40
2023-03-02T12:53:20.153Z,19.26
2023-03-02T12:55:47.166Z,19.47
2023-03-02T12:58:20.234Z,18.16
2023-03-02T13:00:58.337Z,20.19
2023-03-02T13:03:26.805Z,19.52
2023-03-02T13:06:17.281Z,20.56
2023-03-02T13:08:48.187Z,20.57
2023-03-02T13:11:24.442Z,18.45
2023-03-02T13:13:51.260Z,19.45
2023-03-02T13:16:28.162Z,19.75
2023-03-02T13:18:57.768Z,19.71
2023-03-02T13:21:37.601Z,19.71
2023-03-02T13:24:20.480Z,20.42
2023-03-02T13:26:56.361Z,21.03
2023-03-02T13:29:27.019Z,20.40
2023-03-02T13:31:55.225Z,21.60
2023-03-02T13:34:27.887Z,21.28
2023-03-02T13:36:55.116Z,21.50
2023-03-02T13:39:31.646Z,23.10
2023-03-02T13:42:00.976Z,23.16
2023-03-02T13:44:35.310Z,25.07
2023-03-02T13:47:02.399Z,27.48
2023-03-02T13:49:32.501Z,28.00
2023-03-02T13:52:08.391Z,31.06
2023-03-02T13:54:37.507Z,31.70
2023-03-02T13:57:06.230Z,31.51
2023-03-02T13:59:36.347Z,32.93
2023-03-02T14:02:03.356Z,33.04
2023-03-02T14:04:30.150Z,34.27
2023-03-02T14:06:56.849Z,34.07
2023-03-02T14:09:23.707Z,34.44
2023-03-02T14:11:53.482Z,34.08
2023-03-02T14:14:23.871Z,34.35
2023-03-02T14:16:51.254Z,34.86
2023-03-02T14:19:18.659Z,35.24
2023-03-02T14:21:46.626Z,35.87
2023-03-02T14:24:14.529Z,36.76
2023-03-02T14:26:46.270Z,37.91
2023-03-02T14:29:31.442Z,36.16
2023-03-02T14:32:00.325Z,36.82
2023-03-02T14:34:27.007Z,35.03
2023-03-02T14:36:56.541Z,36.54
2023-03-02T14:39:32.218Z,36.09
2023-03-02T14:41:59.736Z,36.32
2023-03-02T14:44:26.671Z,35.98
2023-03-02T14:46:53.350Z,36.98
2023-03-02T14:49:21.085Z,36.05
2023-03-02T14:51:54.891Z,38.26
2023-03-02T14:54:21.810Z,36.96
2023-03-02T14:56:50.485Z,39.58
2023-03-02T14:59:17.358Z,39.07
2023-03-02T15:01:46.926Z,39.74
2023-03-02T15:04:13.546Z,40.24
2023-03-02T15:06:42.295Z,41.01
2023-03-02T15:09:11.912Z,39.89
2023-03-02T15:11:38.552Z,40.88
2023-03-02T15:14:05.131Z,40.35
2023-03-02T15:16:33.035Z,40.43
2023-03-02T15:18:59.941Z,42.42
2023-03-02T15:21:26.578Z,42.34
2023-03-02T15:23:53.322Z,42.47
2023-03-02T15:26:19.986Z,44.11
2023-03-02T15:28:50.694Z,43.54
2023-03-02T15:31:18.343Z,44.75
2023-03-02T15:33:45.537Z,44.82
2023-03-02T15:36:13.297Z,43.56
2023-03-02T15:38:40.326Z,44.16
2023-03-02T15:41:10.276Z,43.78
2023-03-02T15:43:37.114Z,44.40
2023-03-02T15:46:05.420Z,43.25
2023-03-02T15:48:32.550Z,41.78
2023-03-02T15:51:00.752Z,41.15
2023-03-02T15:53:28.972Z,38.63
2023-03-02T15:55:56.141Z,37.91
2023-03-02T15:58:23.358Z,37.79
2023-03-02T16:00:50.865Z,38.55
2023-03-02T16:03:19.284Z,39.21
2023-03-02T16:05:46.937Z,40.90
2023-03-02T16:08:13.694Z,43.04
2023-03-02T16:10:42.905Z,42.77
2023-03-02T16:13:11.717Z,44.64
2023-03-02T16:15:42.059Z,44.84
2023-03-02T16:18:11.451Z,45.31
2023-03-02T16:20:39.691Z,46.54
2023-03-02T16:23:08.515Z,47.24
2023-03-02T16:25:39.628Z,46.61
2023-03-02T16:28:07.125Z,49.48
2023-03-02T16:30:34.925Z,49.03
2023-03-02T16:33:03.536Z,50.21
2023-03-02T16:35:33.161Z,50.70
2023-03-02T16:38:00.601Z,51.54
2023-03-02T16:40:28.041Z,50.46
2023-03-02T16:42:55.082Z,52.11
2023-03-02T16:45:22.933Z,54.16
2023-03-02T16:47:49.891Z,55.09
2023-03-02T16:50:17.423Z,53.26
2023-03-02T16:52:44.833Z,54.12
2023-03-02T16:55:18.812Z,55.17
2023-03-02T16:57:46.424Z,56.19
2023-03-02T17:00:18.471Z,56.64
2023-03-02T17:02:45.103Z,56.90
2023-03-02T17:05:13.519Z,58.29
2023-03-02T17:07:40.260Z,58.65
2023-03-02T17:10:08.020Z,58.48
2023-03-02T17:12:34.619Z,59.05
2023-03-02T17:15:01.205Z,60.43
2023-03-02T17:17:27.740Z,60.62
2023-03-02T17:19:54.352Z,60.78
2023-03-02T17:22:20.883Z,60.37
2023-03-02T17:24:47.539Z,61.86
2023-03-02T17:27:24.595Z,61.04
2023-03-02T17:29:52.968Z,61.73
2023-03-02T17:32:21.954Z,62.02
2023-03-02T17:34:48.796Z,62.89
2023-03-02T17:37:17.512Z,63.48
2023-03-02T17:39:44.194Z,63.39
2023-03-02T17:42:10.944Z,63.64
2023-03-02T17:44:38.977Z,63.14
2023-03-02T17:47:08.154Z,63.38
2023-03-02T17:49:39.528Z,65.39
2023-03-02T17:52:06.356Z,63.78
2023-03-02T17:54:32.895Z,64.79
2023-03-02T17:56:59.562Z,64.51
2023-03-02T17:59:26.516Z,64.30
2023-03-02T18:01:53.415Z,65.28
2023-03-02T18:04:20.951Z,64.86
2023-03-02T18:06:53.031Z,65.01
2023-03-02T18:09:22.081Z,64.59
2023-03-02T18:11:48.822Z,65.17
2023-03-02T18:14:19.206Z,64.98
2023-03-02T18:16:46.190Z,65.17
2023-03-02T18:19:13.075Z,65.59
2023-03-02T18:21:41.718Z,65.68
2023-03-02T18:24:09.421Z,65.20
2023-03-02T18:26:38.045Z,65.73
2023-03-02T18:29:04.956Z,65.77
2023-03-02T18:31:33.953Z,66.03
2023-03-02T18:34:01.615Z,66.72
2023-03-02T18:36:28.583Z,66.86
2023-03-02T18:38:55.265Z,66.97
2023-03-02T18:41:24.001Z,66.86
2023-03-02T18:43:51.754Z,67.60
2023-03-02T18:46:21.393Z,67.75
2023-03-02T18:48:50.166Z,67.04
2023-03-02T18:51:18.650Z,67.93
2023-03-02T18:53:45.543Z,68.36
2023-03-02T18:56:12.253Z,69.43
2023-03-02T18:58:39.735Z,70.42
2023-03-02T19:01:07.281Z,70.79
2023-03-02T19:03:35.467Z,70.99
2023-03-02T19:06:02.090Z,71.59
2023-03-02T19:08:29.543Z,71.48
2023-03-02T19:10:56.200Z,71.83
2023-03-02T19:13:23.896Z,71.86
2023-03-02T19:15:50.698Z,71.56
2023-03-02T19:18:19.590Z,71.72
2023-03-02T19:20:48.390Z,72.52
2023-03-02T19:23:15.544Z,71.93
2023-03-02T19:25:46.988Z,71.76
2023-03-02T19:28:14.600Z,72.23
2023-03-02T19:30:41.524Z,72.91
2023-03-02T19:33:09.712Z,73.08
2023-03-02T19:35:37.739Z,74.06
2023-03-02T19:38:05.808Z,73.95
2023-03-02T19:40:32.649Z,74.79
2023-03-02T19:42:59.451Z,74.83
2023-03-02T19:45:29.554Z,74.88
2023-03-02T19:47:57.811Z,74.95
2023-03-02T19:50:25.691Z,74.96
2023-03-02T19:52:54.761Z,75.86
2023-03-02T19:55:24.182Z,76.02
2023-03-02T19:57:57.262Z,75.86
2023-03-02T20:00:24.214Z,76.18
2023-03-02T20:02:50.899Z,76.21
2023-03-02T20:05:18.005Z,76.72
2023-03-02T20:07:45.162Z,76.63
2023-03-02T20:10:40.546Z,76.85
2023-03-02T20:13:08.715Z,77.25
2023-03-02T20:15:39.117Z,77.61
2023-03-02T20:18:07.594Z,77.76
2023-03-02T20:20:34.340Z,78.27
2023-03-02T20:23:00.912Z,78.31
2023-03-02T20:25:28.603Z,78.73
2023-03-02T20:27:55.958Z,78.81
2023-03-02T20:30:30.913Z,78.73
2023-03-02T20:32:59.792Z,78.53
2023-03-02T20:35:30.254Z,79.72
2023-03-02T20:37:58.672Z,79.91
2023-03-02T20:40:26.183Z,79.67
2023-03-02T20:42:53.441Z,79.76
2023-03-02T20:45:20.584Z,80.67
2023-03-02T20:47:47.824Z,80.94
2023-03-02T20:50:18.997Z,81.05
2023-03-02T20:52:47.055Z,80.83
2023-03-02T20:55:13.889Z,80.85
2023-03-02T20:57:40.772Z,81.46
2023-03-02T21:00:11.830Z,81.47
2023-03-02T21:02:38.418Z,81.42
2023-03-02T21:05:06.608Z,81.28
2023-03-02T21:07:35.971Z,81.82
2023-03-02T21:10:05.925Z,81.55
2023-03-02T21:12:33.281Z,80.73
2023-03-02T21:15:02.000Z,80.02
2023-03-02T21:17:30.727Z,80.44
2023-03-02T21:19:58.204Z,80.89
2023-03-02T21:22:24.993Z,80.99
2023-03-02T21:24:52.996Z,81.22
2023-03-02T21:27:20.155Z,81.56
2023-03-02T21:29:47.220Z,81.17
2023-03-02T21:32:14.522Z,80.84
2023-03-02T21:34:41.052Z,81.62
2023-03-02T21:37:07.723Z,81.82
2023-03-02T21:39:34.424Z,80.70
2023-03-02T21:42:01.169Z,80.78
2023-03-02T21:44:27.843Z,81.25
2023-03-02T21:46:54.750Z,80.41
2023-03-02T21:49:22.913Z,80.81
2023-03-02T21:51:50.098Z,80.48
2023-03-02T21:54:17.090Z,81.08
2023-03-02T21:56:44.040Z,81.80
2023-03-02T21:59:11.284Z,81.71
2023-03-02T22:01:37.944Z,81.49
2023-03-02T22:04:04.839Z,81.32
2023-03-02T22:06:33.201Z,82.92
2023-03-02T22:09:01.385Z,83.68
2023-03-02T22:11:34.653Z,83.29
2023-03-02T22:14:07.972Z,82.80
2023-03-02T22:16:40.171Z,82.12
2023-03-02T22:19:25.582Z,81.72
2023-03-02T22:21:54.310Z,81.72
2023-03-02T22:24:31.834Z,82.26
2023-03-02T22:27:04.861Z,81.75
2023-03-02T22:29:34.512Z,81.08
2023-03-02T22:32:15.567Z,81.10
2023-03-02T22:34:43.614Z,80.64
2023-03-02T22:37:17.506Z,80.60
2023-03-02T22:39:45.469Z,80.39
2023-03-02T22:42:15.975Z,80.64
2023-03-02T22:44:43.245Z,81.14
2023-03-02T22:47:15.822Z,81.34
2023-03-02T22:49:43.037Z,81.43
2023-03-02T22:52:21.908Z,81.91
2023-03-02T22:54:48.836Z,82.27
2023-03-02T22:57:31.721Z,82.46
2023-03-02T23:00:18.547Z,82.79
2023-03-02T23:02:46.050Z,83.60
2023-03-02T23:05:38.843Z,83.56
2023-03-02T23:08:25.134Z,83.97
2023-03-02T23:10:54.486Z,84.45
2023-03-02T23:13:24.649Z,84.13
2023-03-02T23:15:53.123Z,84.06
2023-03-02T23:18:28.866Z,84.69
2023-03-02T23:20:56.045Z,84.60
2023-03-02T23:23:24.598Z,84.66
2023-03-02T23:25:51.215Z,84.62
2023-03-02T23:28:17.861Z,84.93
2023-03-02T23:30:45.264Z,85.36
2023-03-02T23:33:12.017Z,85.48
2023-03-02T23:35:38.736Z,85.25
2023-03-02T23:38:05.331Z,85.00
2023-03-02T23:40:31.947Z,84.50
2023-03-02T23:42:58.711Z,84.61
2023-03-02T23:45:26.474Z,84.93
2023-03-02T23:47:53.124Z,85.18
2023-03-02T23:50:19.905Z,86.06
2023-03-02T23:52:46.593Z,85.65
2023-03-02T23:55:13.352Z,85.62
2023-03-02T23:57:39.941Z,85.71
